Time;durP1;ratioP1;P1;durP2;ratioP2;P2;SDS_P1;SDS_P2;PMS_P1;PMS_P2;Temp;Humidity;BMP_temperature;BMP_pressure;BME280_temperature;BME280_humidity;BME280_pressure;Samples;Min_cycle;Max_cycle;Signal;HPM_P1;HPM_P2
2021/06/19 00:02:04;;;;;;;5.85;5.38;;;23.80;99.90;;;;;;6241760;22;20202;-79
2021/06/19 00:04:32;;;;;;;5.10;4.80;;;23.80;99.90;;;;;;6242674;23;20198;-79
2021/06/19 00:06:59;;;;;;;5.47;5.07;;;23.80;99.90;;;;;;6242013;23;20173;-80
2021/06/19 00:09:27;;;;;;;5.68;5.15;;;23.70;99.90;;;;;;6241305;23;20208;-79
2021/06/19 00:11:54;;;;;;;5.15;4.75;;;23.70;99.90;;;;;;6262942;22;20186;-79
2021/06/19 00:14:22;;;;;;;5.60;5.18;;;23.70;99.90;;;;;;6242884;23;20206;-79
2021/06/19 00:16:49;;;;;;;5.18;4.78;;;23.60;99.90;;;;;;6251000;23;20174;-79
2021/06/19 00:19:18;;;;;;;6.18;5.68;;;23.60;99.90;;;;;;6253751;23;20210;-80
2021/06/19 00:21:45;;;;;;;5.80;5.40;;;23.50;99.90;;;;;;6243272;22;20194;-79
2021/06/19 00:24:18;;;;;;;5.80;5.40;;;23.50;99.90;;;;;;6242533;23;20268;-78
2021/06/19 00:26:46;;;;;;;5.95;5.38;;;23.40;99.90;;;;;;6243286;23;20155;-79
2021/06/19 00:29:13;;;;;;;6.18;5.68;;;23.40;99.90;;;;;;6242146;23;20678;-79
2021/06/19 00:31:40;;;;;;;5.35;4.93;;;23.40;99.90;;;;;;6243904;22;20190;-80
2021/06/19 00:34:07;;;;;;;5.60;5.20;;;23.30;99.90;;;;;;6243013;23;20216;-79
2021/06/19 00:43:53;;;;;;;4.85;4.50;;;23.40;99.90;;;;;;6148569;23;20184;-79
2021/06/19 00:46:20;;;;;;;5.68;5.18;;;23.40;99.90;;;;;;6156488;23;20207;-80
2021/06/19 00:48:47;;;;;;;5.38;4.97;;;23.30;99.90;;;;;;6242962;23;20154;-80
2021/06/19 00:51:15;;;;;;;5.63;5.18;;;23.30;99.90;;;;;;6242016;22;20202;-80
2021/06/19 00:53:42;;;;;;;5.38;4.93;;;23.30;99.90;;;;;;6244235;23;20167;-80
2021/06/19 01:01:54;;;;;;;5.25;4.85;;;23.20;99.90;;;;;;6173630;22;20654;-82
2021/06/19 01:04:21;;;;;;;4.75;4.35;;;23.20;99.90;;;;;;6254904;23;20174;-81
2021/06/19 01:06:48;;;;;;;5.82;5.32;;;23.20;99.90;;;;;;6259368;22;20217;-81
2021/06/19 01:09:15;;;;;;;5.80;5.30;;;23.20;99.90;;;;;;6245158;23;20237;-82
2021/06/19 01:11:43;;;;;;;5.85;5.43;;;23.10;99.90;;;;;;6243255;22;20684;-80
2021/06/19 01:14:11;;;;;;;5.78;5.28;;;23.10;99.90;;;;;;6245072;22;20257;-80
2021/06/19 01:16:38;;;;;;;5.72;5.25;;;23.10;99.90;;;;;;6244819;22;20182;-80
2021/06/19 01:19:05;;;;;;;5.50;5.00;;;23.10;99.90;;;;;;6246770;23;20200;-81
2021/06/19 01:21:32;;;;;;;5.85;5.35;;;23.10;99.90;;;;;;6245383;22;20509;-80
2021/06/19 01:24:00;;;;;;;5.38;4.95;;;23.00;99.90;;;;;;6245049;23;20171;-81
2021/06/19 01:26:30;;;;;;;5.03;4.57;;;22.90;99.90;;;;;;6243630;22;20639;-81
2021/06/19 01:29:01;;;;;;;5.57;5.13;;;22.90;99.90;;;;;;6243413;23;20167;-81
2021/06/19 01:31:28;;;;;;;5.68;5.13;;;22.80;99.90;;;;;;6243434;22;20240;-80
2021/06/19 01:33:56;;;;;;;5.80;5.35;;;22.90;99.90;;;;;;6243996;22;20170;-81
2021/06/19 01:36:24;;;;;;;5.68;5.28;;;23.00;99.90;;;;;;6242232;23;20174;-79
2021/06/19 01:38:54;;;;;;;5.68;5.18;;;23.00;99.90;;;;;;6242059;23;20551;-80
2021/06/19 01:41:23;;;;;;;4.72;4.43;;;23.00;99.90;;;;;;6243395;22;20520;-81
2021/06/19 01:44:00;;;;;;;5.97;5.47;;;23.00;99.90;;;;;;6267154;22;20250;-81
2021/06/19 01:46:27;;;;;;;5.13;4.78;;;23.00;99.90;;;;;;6264021;22;20151;-80
2021/06/19 01:48:54;;;;;;;5.53;5.03;;;23.00;99.90;;;;;;6242555;23;20186;-80
2021/06/19 01:51:21;;;;;;;5.55;5.10;;;23.00;99.90;;;;;;6263426;22;20174;-79
2021/06/19 01:53:50;;;;;;;5.05;4.65;;;23.00;99.90;;;;;;6252437;22;20204;-79
2021/06/19 01:56:17;;;;;;;5.25;4.85;;;23.00;99.90;;;;;;6241303;23;20182;-80
2021/06/19 01:58:44;;;;;;;5.20;4.80;;;23.00;99.90;;;;;;6241825;22;20213;-79
2021/06/19 02:01:15;;;;;;;4.88;4.47;;;23.00;99.90;;;;;;6241865;22;20185;-79
2021/06/19 02:03:43;;;;;;;5.10;4.60;;;22.90;99.90;;;;;;6241546;23;20222;-80
2021/06/19 02:06:10;;;;;;;4.80;4.50;;;22.90;99.90;;;;;;6241761;23;20181;-82
2021/06/19 02:08:38;;;;;;;5.38;4.88;;;22.90;99.90;;;;;;6242213;23;20209;-80
2021/06/19 02:11:06;;;;;;;5.03;4.65;;;22.90;99.90;;;;;;6243694;23;20174;-81
2021/06/19 02:13:35;;;;;;;5.57;5.07;;;22.80;99.90;;;;;;6242125;23;20202;-81
2021/06/19 02:16:03;;;;;;;4.95;4.55;;;22.80;99.90;;;;;;6242222;23;20181;-81
2021/06/19 02:18:32;;;;;;;5.38;4.88;;;22.90;99.90;;;;;;6241751;23;20209;-81
2021/06/19 02:20:59;;;;;;;5.20;4.80;;;22.80;99.90;;;;;;6242272;23;20175;-81
2021/06/19 02:23:27;;;;;;;5.72;5.20;;;22.80;99.90;;;;;;6241521;22;20214;-81
2021/06/19 02:31:49;;;;;;;5.25;4.85;;;22.70;99.90;;;;;;6045627;23;20287;-80
2021/06/19 02:34:51;;;;;;;5.07;4.70;;;22.70;99.90;;;;;;6148929;23;20235;-81
2021/06/19 02:37:44;;;;;;;5.55;5.13;;;22.70;99.90;;;;;;6215007;23;20240;-80
2021/06/19 02:40:46;;;;;;;5.18;4.78;;;22.70;99.90;;;;;;6272778;23;20198;-80
2021/06/19 03:02:19;;;;;;;5.60;5.20;;;22.40;99.90;;;;;;6168336;23;20308;-82
2021/06/19 03:05:19;;;;;;;5.00;4.60;;;22.40;99.90;;;;;;6237395;22;20178;-80
2021/06/19 03:08:32;;;;;;;5.97;5.47;;;22.40;99.90;;;;;;6219877;23;20252;-80
2021/06/19 03:10:59;;;;;;;5.10;4.70;;;22.40;99.90;;;;;;6239257;22;20202;-81
2021/06/19 03:13:28;;;;;;;6.03;5.53;;;22.30;99.90;;;;;;6242070;22;20225;-81
2021/06/19 03:15:55;;;;;;;4.65;4.35;;;22.30;99.90;;;;;;6241915;22;20202;-81
2021/06/19 03:18:22;;;;;;;5.30;4.90;;;22.40;99.90;;;;;;6242949;22;20631;-81
2021/06/19 03:20:49;;;;;;;5.90;5.40;;;22.40;99.90;;;;;;6241462;22;20201;-80
2021/06/19 03:23:17;;;;;;;6.13;5.60;;;22.40;99.90;;;;;;6244423;22;20202;-80
2021/06/19 03:25:44;;;;;;;5.47;5.07;;;22.30;99.90;;;;;;6254934;22;20174;-80
2021/06/19 03:28:13;;;;;;;6.00;5.50;;;22.30;99.90;;;;;;6261727;23;20209;-81
2021/06/19 03:30:44;;;;;;;5.65;5.25;;;22.30;99.90;;;;;;6263440;22;20185;-81
2021/06/19 03:33:12;;;;;;;5.32;4.93;;;22.40;99.90;;;;;;6247361;22;20190;-81
2021/06/19 03:35:40;;;;;;;4.93;4.53;;;22.40;99.90;;;;;;6246740;22;20201;-81
2021/06/19 03:38:07;;;;;;;5.18;4.78;;;22.40;99.90;;;;;;6245686;23;20269;-81
2021/06/19 03:40:36;;;;;;;5.45;5.05;;;22.50;99.90;;;;;;6244764;22;20174;-79
2021/06/19 03:43:04;;;;;;;4.72;4.43;;;22.50;99.90;;;;;;6243852;22;20674;-81
2021/06/19 03:49:14;;;;;;;5.30;4.90;;;22.50;99.90;;;;;;6227544;22;20246;-81
2021/06/19 04:02:34;;;;;;;5.78;5.28;;;22.50;99.90;;;;;;6142496;23;20203;-82
2021/06/19 04:18:45;;;;;;;5.57;5.18;;;22.60;99.90;;;;;;6184948;23;20659;-82
2021/06/19 04:21:12;;;;;;;4.97;4.57;;;22.60;99.90;;;;;;6212113;23;20156;-81
2021/06/19 04:23:39;;;;;;;5.38;4.97;;;22.50;99.90;;;;;;6232419;22;20225;-82
2021/06/19 04:26:06;;;;;;;6.75;4.90;;;22.60;99.90;;;;;;6247031;22;20209;-80
2021/06/19 04:28:34;;;;;;;5.60;5.10;;;22.60;99.90;;;;;;6254261;23;20750;-80
2021/06/19 04:31:03;;;;;;;5.78;5.28;;;22.60;99.90;;;;;;6251541;22;20204;-81
2021/06/19 04:33:30;;;;;;;5.50;5.00;;;22.70;99.90;;;;;;6255891;22;20187;-81
2021/06/19 04:35:59;;;;;;;5.65;5.15;;;22.70;99.90;;;;;;6256449;22;20735;-81
2021/06/19 04:38:26;;;;;;;5.32;4.85;;;22.70;99.90;;;;;;6251659;23;20502;-82
2021/06/19 04:40:56;;;;;;;5.35;4.95;;;22.80;99.90;;;;;;6251071;22;20525;-81
2021/06/19 04:43:29;;;;;;;5.45;5.05;;;22.80;99.90;;;;;;6251666;22;20277;-81
2021/06/19 04:45:56;;;;;;;5.35;4.95;;;22.90;99.90;;;;;;6251604;22;20290;-81
2021/06/19 04:48:23;;;;;;;4.38;4.00;;;22.90;99.90;;;;;;6252831;23;20197;-81
2021/06/19 04:50:52;;;;;;;5.28;4.88;;;23.00;99.90;;;;;;6258255;22;20580;-81
2021/06/19 04:53:21;;;;;;;5.35;4.85;;;23.10;99.90;;;;;;6249018;22;20269;-82
2021/06/19 04:55:48;;;;;;;5.57;5.15;;;23.10;99.90;;;;;;6246285;22;20209;-81
2021/06/19 04:58:15;;;;;;;5.60;5.18;;;23.20;99.90;;;;;;6249927;23;20178;-82
2021/06/19 05:00:42;;;;;;;5.50;5.05;;;23.20;99.90;;;;;;6263484;22;20262;-80
2021/06/19 05:03:11;;;;;;;5.85;5.45;;;23.10;99.90;;;;;;6255101;22;20202;-81
2021/06/19 05:05:38;;;;;;;5.47;4.97;;;22.90;99.90;;;;;;6251768;22;20206;-82
2021/06/19 05:08:07;;;;;;;5.55;5.15;;;22.80;99.90;;;;;;6258422;23;20167;-82
2021/06/19 05:10:36;;;;;;;4.93;4.63;;;22.70;99.90;;;;;;6231977;22;20199;-81
2021/06/19 05:13:03;;;;;;;5.30;4.80;;;22.60;99.90;;;;;;6217879;23;20702;-81
2021/06/19 05:15:30;;;;;;;5.40;5.00;;;22.60;99.90;;;;;;6217191;23;20256;-80
2021/06/19 05:17:58;;;;;;;5.75;5.25;;;22.70;99.90;;;;;;6218765;23;20177;-80
2021/06/19 05:20:27;;;;;;;5.93;5.43;;;22.70;99.90;;;;;;6217426;23;20213;-81
2021/06/19 05:22:55;;;;;;;6.10;5.50;;;22.90;99.90;;;;;;6218491;23;20725;-81
2021/06/19 05:25:22;;;;;;;5.97;5.47;;;23.10;99.90;;;;;;6217552;23;20207;-82
2021/06/19 05:27:51;;;;;;;5.13;4.72;;;23.20;99.90;;;;;;6219381;23;20707;-82
2021/06/19 05:30:19;;;;;;;6.43;5.65;;;23.30;99.90;;;;;;6217813;23;20199;-81
2021/06/19 05:32:46;;;;;;;5.97;5.50;;;23.40;99.90;;;;;;6223533;23;20213;-80
2021/06/19 05:35:14;;;;;;;6.38;5.78;;;23.50;99.90;;;;;;6220165;23;20229;-82
2021/06/19 05:37:41;;;;;;;7.60;6.90;;;23.60;99.90;;;;;;6218963;23;20169;-81
2021/06/19 05:40:10;;;;;;;6.18;5.68;;;23.60;99.90;;;;;;6221325;23;20279;-81
2021/06/19 05:42:37;;;;;;;7.30;5.95;;;23.70;99.90;;;;;;6225843;23;20191;-82
2021/06/19 05:45:08;;;;;;;7.78;7.00;;;23.70;99.90;;;;;;6225926;23;20285;-80
2021/06/19 05:47:35;;;;;;;7.32;6.63;;;23.90;99.90;;;;;;6233151;23;20159;-80
2021/06/19 05:50:03;;;;;;;6.63;6.13;;;24.00;99.90;;;;;;6225102;23;20194;-79
2021/06/19 05:52:30;;;;;;;7.22;6.30;;;24.00;99.90;;;;;;6215374;23;20691;-80
2021/06/19 05:54:57;;;;;;;8.18;7.47;;;24.00;99.90;;;;;;6214331;23;22124;-79
2021/06/19 05:57:24;;;;;;;7.63;6.90;;;23.90;99.90;;;;;;6216414;23;20174;-80
2021/06/19 05:59:51;;;;;;;7.82;7.13;;;23.80;99.90;;;;;;6230732;23;20217;-78
2021/06/19 06:02:20;;;;;;;7.90;7.25;;;23.80;99.90;;;;;;6214536;23;20203;-78
2021/06/19 06:04:47;;;;;;;8.50;7.78;;;23.80;99.90;;;;;;6214675;23;20171;-77
2021/06/19 06:07:14;;;;;;;8.65;7.85;;;23.80;99.90;;;;;;6215330;23;20173;-79
2021/06/19 06:09:41;;;;;;;9.65;7.53;;;23.90;99.90;;;;;;6214886;23;20186;-78
2021/06/19 06:12:10;;;;;;;8.52;7.75;;;23.80;99.90;;;;;;6214663;23;20190;-78
2021/06/19 06:14:38;;;;;;;7.78;7.07;;;23.90;99.90;;;;;;6215283;23;20163;-79
2021/06/19 06:17:05;;;;;;;8.55;7.85;;;23.90;99.90;;;;;;6214741;23;20198;-77
2021/06/19 06:19:34;;;;;;;7.80;7.10;;;24.10;99.90;;;;;;6215213;23;20175;-78
2021/06/19 06:22:03;;;;;;;7.82;7.22;;;24.30;99.90;;;;;;6214760;23;20242;-78
2021/06/19 06:24:30;;;;;;;8.93;8.10;;;24.40;99.90;;;;;;6215346;23;20191;-79
2021/06/19 06:26:57;;;;;;;8.75;7.80;;;24.40;99.90;;;;;;6214543;23;20202;-77
2021/06/19 06:29:24;;;;;;;9.93;8.85;;;24.40;99.90;;;;;;6206633;23;20450;-77
2021/06/19 06:31:52;;;;;;;8.07;7.43;;;24.30;99.90;;;;;;6206254;23;20203;-78
2021/06/19 06:34:20;;;;;;;8.70;8.00;;;24.30;99.90;;;;;;6214786;23;20177;-77
2021/06/19 06:36:49;;;;;;;8.40;7.80;;;24.40;99.90;;;;;;6209128;23;20206;-77
2021/06/19 06:39:16;;;;;;;9.93;8.30;;;24.30;99.90;;;;;;6211553;23;20194;-77
2021/06/19 06:41:43;;;;;;;7.68;6.97;;;24.10;99.90;;;;;;6206909;23;20666;-76
2021/06/19 06:44:11;;;;;;;9.52;8.73;;;24.20;99.90;;;;;;6209339;23;20747;-77
2021/06/19 06:46:38;;;;;;;8.52;7.82;;;24.50;99.90;;;;;;6204478;23;20371;-76
2021/06/19 06:49:05;;;;;;;9.40;8.60;;;24.60;99.90;;;;;;6224485;23;20507;-76
2021/06/19 06:51:34;;;;;;;8.73;7.93;;;24.80;99.90;;;;;;6206730;23;20226;-76
2021/06/19 06:54:03;;;;;;;10.18;8.15;;;25.00;99.90;;;;;;6209063;23;20171;-77
2021/06/19 06:56:30;;;;;;;9.95;9.05;;;25.10;99.90;;;;;;6236686;22;20197;-78
2021/06/19 06:58:57;;;;;;;9.20;8.40;;;25.00;99.90;;;;;;6220192;23;20193;-77
2021/06/19 07:01:24;;;;;;;9.95;8.90;;;24.70;99.90;;;;;;6207721;23;20206;-76
2021/06/19 07:03:55;;;;;;;11.02;8.57;;;24.60;99.90;;;;;;6211090;23;20531;-77
2021/06/19 07:06:22;;;;;;;10.32;9.38;;;24.50;99.90;;;;;;6212234;23;20697;-77
2021/06/19 07:08:50;;;;;;;8.38;7.78;;;24.50;99.90;;;;;;6210328;23;20182;-77
2021/06/19 07:11:18;;;;;;;8.15;7.43;;;24.60;99.90;;;;;;6209937;23;20199;-77
2021/06/19 07:13:45;;;;;;;7.60;7.00;;;24.80;99.90;;;;;;6208538;23;20170;-76
2021/06/19 07:16:12;;;;;;;7.85;7.15;;;25.10;99.90;;;;;;6210751;23;20205;-78
2021/06/19 07:18:39;;;;;;;8.18;7.35;;;25.30;99.90;;;;;;6213317;23;20167;-76
2021/06/19 07:21:07;;;;;;;7.70;7.05;;;25.50;99.90;;;;;;6219619;23;20202;-78
2021/06/19 07:23:34;;;;;;;8.05;7.35;;;25.70;99.90;;;;;;6222362;23;20282;-76
2021/06/19 07:26:01;;;;;;;9.40;8.50;;;25.70;99.90;;;;;;6208777;23;20667;-76
2021/06/19 07:28:29;;;;;;;8.70;7.80;;;25.70;99.90;;;;;;6212773;23;20178;-77
2021/06/19 07:30:56;;;;;;;8.10;7.47;;;25.70;99.90;;;;;;6209270;23;20205;-76
2021/06/19 07:33:24;;;;;;;9.27;8.48;;;25.80;99.90;;;;;;6213570;23;20202;-77
2021/06/19 07:35:54;;;;;;;7.90;7.10;;;25.70;99.90;;;;;;6206939;23;20203;-77
2021/06/19 07:38:21;;;;;;;8.50;7.57;;;25.80;99.90;;;;;;6227295;23;20175;-77
2021/06/19 07:40:49;;;;;;;8.65;7.78;;;26.00;99.90;;;;;;6211119;23;20207;-76
2021/06/19 07:43:17;;;;;;;9.25;8.45;;;26.20;99.90;;;;;;6211068;23;20199;-77
2021/06/19 07:45:45;;;;;;;8.85;8.10;;;26.40;99.90;;;;;;6210319;23;20272;-76
2021/06/19 07:48:12;;;;;;;8.75;7.85;;;26.30;99.90;;;;;;6210297;23;20518;-77
2021/06/19 07:50:40;;;;;;;8.68;7.90;;;26.20;99.90;;;;;;6210227;23;20199;-77
2021/06/19 07:53:08;;;;;;;8.93;8.10;;;26.30;99.90;;;;;;6210745;23;20210;-76
2021/06/19 07:55:35;;;;;;;9.13;8.23;;;26.40;99.90;;;;;;6212876;23;20594;-78
2021/06/19 07:58:02;;;;;;;9.38;8.57;;;26.40;99.90;;;;;;6210895;23;20171;-76
2021/06/19 08:00:31;;;;;;;9.50;8.70;;;26.40;99.90;;;;;;6212286;23;20198;-77
2021/06/19 08:02:59;;;;;;;9.15;8.35;;;26.40;99.90;;;;;;6210543;23;20191;-76
2021/06/19 08:05:28;;;;;;;8.70;8.00;;;26.50;99.90;;;;;;6210824;23;20350;-77
2021/06/19 08:07:56;;;;;;;8.73;7.93;;;26.50;99.90;;;;;;6214145;23;20175;-78
2021/06/19 08:10:25;;;;;;;9.25;8.43;;;26.70;99.90;;;;;;6218802;23;20237;-76
2021/06/19 08:12:52;;;;;;;8.27;7.50;;;27.20;99.90;;;;;;6212228;23;20195;-78
2021/06/19 08:15:20;;;;;;;8.05;7.35;;;27.50;99.90;;;;;;6211454;23;20246;-77
2021/06/19 08:17:47;;;;;;;9.52;8.00;;;27.60;99.90;;;;;;6211496;23;20217;-75
2021/06/19 08:20:17;;;;;;;8.43;7.60;;;27.80;99.90;;;;;;6207917;23;20541;-77
2021/06/19 08:22:45;;;;;;;8.70;7.30;;;28.20;99.90;;;;;;6212036;23;20672;-76
2021/06/19 08:25:14;;;;;;;8.35;7.50;;;28.40;99.90;;;;;;6209591;23;20191;-77
2021/06/19 08:27:41;;;;;;;9.98;9.15;;;28.60;99.90;;;;;;6211000;23;20167;-78
2021/06/19 08:30:09;;;;;;;8.45;7.75;;;28.40;99.90;;;;;;6202885;23;20616;-74
2021/06/19 08:32:36;;;;;;;8.43;7.72;;;28.40;99.90;;;;;;6203528;23;20190;-77
2021/06/19 08:35:04;;;;;;;9.63;8.93;;;28.40;99.90;;;;;;6202297;23;20558;-75
2021/06/19 08:37:33;;;;;;;9.48;8.57;;;28.50;99.90;;;;;;6203850;23;20199;-77
2021/06/19 08:40:00;;;;;;;10.18;9.27;;;28.60;99.90;;;;;;6199152;23;20195;-78
2021/06/19 08:42:28;;;;;;;10.30;9.35;;;28.40;99.90;;;;;;6201606;23;20213;-78
2021/06/19 08:44:59;;;;;;;9.90;8.60;;;28.20;99.90;;;;;;6203803;23;20190;-76
2021/06/19 08:47:34;;;;;;;12.23;9.10;;;28.10;99.90;;;;;;6200234;23;20290;-74
2021/06/19 08:50:05;;;;;;;9.27;8.30;;;28.10;99.90;;;;;;6202003;23;20163;-77
2021/06/19 08:52:34;;;;;;;9.57;8.77;;;28.10;99.90;;;;;;6200666;23;20206;-78
2021/06/19 08:55:06;;;;;;;10.93;9.73;;;28.10;99.90;;;;;;6207413;23;20183;-77
2021/06/19 08:57:33;;;;;;;9.65;8.70;;;28.10;99.90;;;;;;6215475;23;20203;-76
2021/06/19 09:00:00;;;;;;;9.13;8.40;;;28.30;99.90;;;;;;6206055;23;20184;-77
2021/06/19 09:02:28;;;;;;;9.23;8.43;;;28.50;99.90;;;;;;6200122;23;20211;-78
2021/06/19 09:04:57;;;;;;;9.23;8.43;;;28.90;99.90;;;;;;6201940;23;20234;-76
2021/06/19 09:07:44;;;;;;;10.13;9.05;;;29.20;99.90;;;;;;6197238;23;20269;-76
2021/06/19 09:10:25;;;;;;;9.38;8.45;;;28.90;99.90;;;;;;6198920;23;20197;-77
2021/06/19 09:13:09;;;;;;;10.02;9.10;;;28.70;99.90;;;;;;6199678;23;20207;-78
2021/06/19 09:15:39;;;;;;;8.95;8.15;;;28.50;99.90;;;;;;6200045;23;20172;-79
2021/06/19 09:18:09;;;;;;;10.25;9.32;;;28.50;99.90;;;;;;6215734;23;20162;-76
2021/06/19 09:20:39;;;;;;;10.18;9.27;;;28.30;99.90;;;;;;6201472;23;20170;-77
2021/06/19 09:23:09;;;;;;;8.88;8.07;;;28.10;99.90;;;;;;6200045;23;20212;-76
2021/06/19 09:25:37;;;;;;;9.23;8.43;;;28.40;99.90;;;;;;6200235;23;20191;-77
2021/06/19 09:28:06;;;;;;;9.25;8.55;;;29.10;99.90;;;;;;6202989;23;20199;-76
2021/06/19 09:30:34;;;;;;;10.88;9.80;;;29.20;99.90;;;;;;6220521;23;20179;-77
2021/06/19 09:33:04;;;;;;;9.48;8.68;;;29.20;99.90;;;;;;6223136;23;20278;-76
2021/06/19 09:35:33;;;;;;;9.55;8.73;;;29.20;99.90;;;;;;6198131;23;20171;-77
2021/06/19 09:38:02;;;;;;;9.60;8.77;;;29.50;99.90;;;;;;6201355;23;20178;-77
2021/06/19 09:40:34;;;;;;;9.00;8.15;;;29.60;99.90;;;;;;6198546;23;20171;-75
2021/06/19 09:43:13;;;;;;;10.05;7.85;;;29.70;99.90;;;;;;6213282;23;20202;-75
2021/06/19 09:45:42;;;;;;;9.90;8.98;;;29.80;99.90;;;;;;6202255;23;20259;-76
2021/06/19 09:48:25;;;;;;;9.00;8.23;;;29.70;99.90;;;;;;6199304;23;20179;-76
2021/06/19 09:51:18;;;;;;;8.88;8.18;;;29.50;99.90;;;;;;6198492;23;20596;-76
2021/06/19 09:53:47;;;;;;;9.38;8.57;;;29.40;99.90;;;;;;6201494;23;20210;-78
2021/06/19 09:56:18;;;;;;;9.80;8.80;;;29.40;99.90;;;;;;6199386;23;20273;-76
2021/06/19 09:58:47;;;;;;;8.90;8.20;;;29.50;99.90;;;;;;6202307;23;20175;-75
2021/06/19 10:01:21;;;;;;;8.95;8.07;;;29.80;99.90;;;;;;6199697;23;20207;-77
2021/06/19 10:03:53;;;;;;;8.32;7.50;;;30.00;99.90;;;;;;6202939;23;20269;-76
2021/06/19 10:06:20;;;;;;;9.07;8.27;;;30.30;99.90;;;;;;6197063;23;20206;-77
2021/06/19 10:08:51;;;;;;;9.38;8.57;;;30.50;99.90;;;;;;6210934;23;20876;-77
2021/06/19 10:11:24;;;;;;;8.98;8.27;;;30.70;99.90;;;;;;6199830;23;20203;-77
2021/06/19 10:13:53;;;;;;;9.55;8.63;;;30.70;99.90;;;;;;6201587;23;20282;-76
2021/06/19 10:16:20;;;;;;;10.45;9.43;;;30.90;99.90;;;;;;6201323;23;20207;-77
2021/06/19 10:18:47;;;;;;;9.57;8.77;;;31.00;99.90;;;;;;6200651;23;20179;-76
2021/06/19 10:21:16;;;;;;;9.68;8.77;;;31.00;99.90;;;;;;6200500;23;20195;-77
2021/06/19 10:23:43;;;;;;;9.00;8.20;;;31.10;99.90;;;;;;6200542;23;20175;-77
2021/06/19 10:26:14;;;;;;;11.15;8.98;;;31.10;99.90;;;;;;6201286;23;20221;-76
2021/06/19 10:28:45;;;;;;;9.40;8.60;;;31.20;99.90;;;;;;6201877;23;20171;-74
2021/06/19 10:31:14;;;;;;;9.27;8.48;;;31.30;99.90;;;;;;6215585;23;20254;-77
2021/06/19 10:33:41;;;;;;;9.70;8.73;;;31.50;99.90;;;;;;6203603;23;20259;-75
2021/06/19 10:36:09;;;;;;;9.88;8.98;;;31.80;99.90;;;;;;6203076;23;20919;-76
2021/06/19 10:38:49;;;;;;;9.93;9.05;;;31.70;99.90;;;;;;6200272;23;20550;-77
2021/06/19 10:41:17;;;;;;;10.23;8.90;;;31.80;99.90;;;;;;6201917;23;20199;-75
2021/06/19 10:43:46;;;;;;;9.70;8.60;;;31.70;99.90;;;;;;6200536;23;20175;-77
2021/06/19 10:46:34;;;;;;;9.30;8.38;;;31.50;99.90;;;;;;6198581;23;20202;-76
2021/06/19 10:49:06;;;;;;;9.10;8.20;;;31.60;99.90;;;;;;6200219;23;20177;-74
2021/06/19 10:51:33;;;;;;;8.65;7.95;;;31.70;99.90;;;;;;6199414;23;20796;-76
2021/06/19 10:54:15;;;;;;;11.18;9.00;;;31.70;99.90;;;;;;6200009;23;20225;-75
2021/06/19 10:56:53;;;;;;;8.38;7.70;;;31.80;99.90;;;;;;6205502;23;20298;-77
2021/06/19 10:59:23;;;;;;;8.68;8.05;;;31.90;99.90;;;;;;6207851;23;20205;-76
2021/06/19 11:01:51;;;;;;;8.40;7.38;;;32.30;99.90;;;;;;6203061;23;20229;-77
2021/06/19 11:04:44;;;;;;;8.43;7.72;;;32.50;99.90;;;;;;6202837;23;20784;-77
2021/06/19 11:07:27;;;;;;;9.35;8.48;;;32.90;99.90;;;;;;6203546;23;20202;-77
2021/06/19 11:09:54;;;;;;;8.40;7.70;;;32.80;99.90;;;;;;6201292;23;20193;-77
2021/06/19 11:12:25;;;;;;;8.73;8.02;;;32.80;99.90;;;;;;6203335;23;21134;-77
2021/06/19 11:15:00;;;;;;;8.73;7.93;;;32.90;99.90;;;;;;6202771;23;20490;-75
2021/06/19 11:17:43;;;;;;;9.95;8.95;;;32.90;99.90;;;;;;6212044;23;20236;-78
2021/06/19 11:20:28;;;;;;;10.25;8.30;;;32.70;99.90;;;;;;6209528;23;20160;-76
2021/06/19 11:22:59;;;;;;;9.73;8.77;;;32.80;99.90;;;;;;6205017;23;20203;-75
2021/06/19 11:26:02;;;;;;;8.57;7.78;;;32.90;99.90;;;;;;6201775;23;20176;-77
2021/06/19 11:28:32;;;;;;;9.45;8.52;;;33.10;99.90;;;;;;6205044;23;20221;-77
2021/06/19 11:31:17;;;;;;;7.68;7.00;;;33.20;99.90;;;;;;6202114;23;20209;-77
2021/06/19 11:33:49;;;;;;;8.13;7.35;;;33.20;99.90;;;;;;6203523;23;20194;-77
2021/06/19 11:36:39;;;;;;;9.93;8.25;;;33.40;99.90;;;;;;6201577;23;20178;-77
2021/06/19 11:39:17;;;;;;;9.35;7.97;;;33.40;99.90;;;;;;6202438;23;20205;-76
2021/06/19 11:41:49;;;;;;;8.93;7.93;;;33.50;99.90;;;;;;6199079;23;20476;-76
2021/06/19 11:44:19;;;;;;;9.77;8.40;;;33.30;99.90;;;;;;6204679;23;20293;-76
2021/06/19 11:46:53;;;;;;;9.32;7.55;;;33.20;99.90;;;;;;6205814;23;20231;-76
2021/06/19 11:49:35;;;;;;;10.23;8.13;;;33.10;99.90;;;;;;6207271;23;20256;-76
2021/06/19 11:52:04;;;;;;;8.48;7.35;;;33.00;99.90;;;;;;6203829;23;20195;-77
2021/06/19 11:54:31;;;;;;;11.57;7.25;;;33.10;99.90;;;;;;6202408;23;20217;-76
2021/06/19 11:56:59;;;;;;;7.40;6.65;;;33.10;99.90;;;;;;6217535;23;20175;-77
2021/06/19 11:59:30;;;;;;;9.18;7.53;;;33.40;99.90;;;;;;6208487;23;20207;-79
2021/06/19 12:01:59;;;;;;;11.45;7.90;;;33.50;99.90;;;;;;6201902;23;20195;-76
2021/06/19 12:04:28;;;;;;;9.82;6.68;;;33.50;99.90;;;;;;6211634;23;20207;-77
2021/06/19 12:06:57;;;;;;;9.35;6.88;;;33.60;99.90;;;;;;6207015;23;20171;-76
2021/06/19 12:09:26;;;;;;;6.95;6.25;;;33.80;99.90;;;;;;6204111;23;20202;-76
2021/06/19 12:11:56;;;;;;;11.82;7.55;;;33.90;99.90;;;;;;6204334;23;20243;-75
2021/06/19 12:14:26;;;;;;;9.93;7.55;;;33.90;99.90;;;;;;6201637;23;20227;-76
2021/06/19 12:16:54;;;;;;;8.13;7.20;;;33.60;99.90;;;;;;6205178;23;20179;-76
2021/06/19 12:19:25;;;;;;;7.72;6.95;;;33.60;99.90;;;;;;6198937;23;20198;-75
2021/06/19 12:21:52;;;;;;;7.63;6.80;;;33.40;99.90;;;;;;6204081;23;20195;-75
2021/06/19 12:24:22;;;;;;;7.78;6.97;;;33.40;99.90;;;;;;6202278;23;20207;-76
2021/06/19 12:27:01;;;;;;;10.70;7.32;;;33.40;99.90;;;;;;6206203;23;20155;-75
2021/06/19 12:29:38;;;;;;;9.55;7.05;;;33.30;99.90;;;;;;6203155;23;20214;-76
2021/06/19 12:32:26;;;;;;;7.45;6.75;;;33.00;99.90;;;;;;6205685;23;20195;-75
2021/06/19 12:34:56;;;;;;;8.13;6.25;;;33.10;99.90;;;;;;6202666;23;20819;-76
2021/06/19 12:37:26;;;;;;;7.07;6.47;;;33.30;99.90;;;;;;6214410;23;20274;-77
2021/06/19 12:39:54;;;;;;;7.88;6.60;;;33.50;99.90;;;;;;6202461;23;20237;-76
2021/06/19 12:42:40;;;;;;;8.27;7.13;;;34.00;99.90;;;;;;6204135;23;20693;-78
2021/06/19 12:45:10;;;;;;;6.65;6.05;;;34.30;99.90;;;;;;6202747;23;20209;-77
2021/06/19 12:47:39;;;;;;;14.82;7.85;;;34.40;99.90;;;;;;6207356;23;20175;-76
2021/06/19 12:50:09;;;;;;;13.02;7.28;;;34.30;99.90;;;;;;6201570;23;20211;-77
2021/06/19 12:52:55;;;;;;;9.77;7.38;;;34.50;99.90;;;;;;6218568;23;20197;-77
2021/06/19 12:55:25;;;;;;;10.38;7.93;;;34.40;99.90;;;;;;6203448;23;20709;-76
2021/06/19 12:58:13;;;;;;;9.63;7.03;;;34.20;99.90;;;;;;6205238;23;20175;-77
2021/06/19 13:00:43;;;;;;;8.57;7.07;;;33.90;99.90;;;;;;6205032;23;20274;-76
2021/06/19 13:03:12;;;;;;;9.93;7.15;;;33.90;99.90;;;;;;6205480;23;20508;-77
2021/06/19 13:05:52;;;;;;;11.07;8.40;;;33.90;99.90;;;;;;6205347;23;20203;-77
2021/06/19 13:08:20;;;;;;;11.20;7.93;;;33.70;99.90;;;;;;6204225;23;20426;-77
2021/06/19 13:10:48;;;;;;;11.80;7.90;;;33.50;99.90;;;;;;6204337;23;20213;-77
2021/06/19 13:13:15;;;;;;;11.63;7.68;;;33.40;99.90;;;;;;6205020;23;20190;-78
2021/06/19 13:15:59;;;;;;;13.93;7.82;;;33.10;99.90;;;;;;6203404;23;20205;-77
2021/06/19 13:18:27;;;;;;;11.30;7.97;;;32.80;99.90;;;;;;6204066;23;20175;-77
2021/06/19 13:21:12;;;;;;;10.73;7.88;;;32.60;99.90;;;;;;6204882;23;20485;-77
2021/06/19 13:23:41;;;;;;;10.98;7.53;;;32.30;99.90;;;;;;6204003;23;20155;-77
2021/06/19 13:26:10;;;;;;;10.52;7.25;;;32.10;99.90;;;;;;6209662;23;20191;-79
2021/06/19 13:29:02;;;;;;;11.63;7.60;;;31.90;99.90;;;;;;6202879;23;20175;-78
2021/06/19 13:31:37;;;;;;;13.85;7.75;;;31.80;99.90;;;;;;6203141;23;20682;-77
2021/06/19 13:34:07;;;;;;;10.15;7.28;;;31.90;99.90;;;;;;6203614;23;20179;-79
2021/06/19 13:36:42;;;;;;;11.43;7.03;;;32.10;99.90;;;;;;6204774;23;20266;-78
2021/06/19 13:39:18;;;;;;;10.73;7.95;;;32.10;99.90;;;;;;6214972;23;20660;-76
2021/06/19 13:41:47;;;;;;;13.38;8.27;;;32.20;99.90;;;;;;6208825;23;20233;-76
2021/06/19 13:44:15;;;;;;;10.95;8.13;;;32.10;99.90;;;;;;6205778;23;20175;-78
2021/06/19 13:46:43;;;;;;;12.43;8.63;;;31.90;99.90;;;;;;6204980;23;20207;-78
2021/06/19 13:49:11;;;;;;;13.07;8.52;;;31.90;99.90;;;;;;6205986;23;20181;-76
2021/06/19 13:51:40;;;;;;;12.52;9.05;;;32.10;99.90;;;;;;6207183;23;20242;-77
2021/06/19 13:54:07;;;;;;;12.45;8.70;;;32.10;99.90;;;;;;6209615;23;20520;-78
2021/06/19 13:56:34;;;;;;;12.48;8.98;;;32.10;99.90;;;;;;6204891;23;20194;-78
2021/06/19 13:59:01;;;;;;;11.73;8.80;;;32.10;99.90;;;;;;6207884;23;20190;-78
2021/06/19 14:01:28;;;;;;;14.63;9.07;;;32.10;99.90;;;;;;6205728;23;20990;-77
2021/06/19 14:03:56;;;;;;;9.82;8.25;;;32.20;99.90;;;;;;6207803;23;20174;-77
2021/06/19 14:06:23;;;;;;;11.95;8.90;;;32.20;99.90;;;;;;6204082;23;20203;-77
2021/06/19 14:08:53;;;;;;;11.27;8.18;;;32.30;99.90;;;;;;6206767;23;20174;-77